createdAt,value
2023-04-20T00:00:44.205Z,101515.00
2023-04-20T00:03:12.756Z,101507.13
2023-04-20T00:05:39.428Z,101510.66
2023-04-20T00:08:06.164Z,101503.22
2023-04-20T00:10:32.805Z,101513.03
2023-04-20T00:12:59.305Z,101510.28
2023-04-20T00:15:25.946Z,101505.56
2023-04-20T00:17:53.623Z,101503.22
2023-04-20T00:20:20.364Z,101501.22
2023-04-20T00:22:46.896Z,101509.47
2023-04-20T00:25:13.397Z,101506.34
2023-04-20T00:27:40.060Z,101505.56
2023-04-20T00:30:07.248Z,101493.78
2023-04-20T00:32:33.763Z,101498.13
2023-04-20T00:35:00.383Z,101509.50
2023-04-20T00:37:26.956Z,101502.81
2023-04-20T00:39:55.483Z,101505.94
2023-04-20T00:42:22.004Z,101503.22
2023-04-20T00:44:48.506Z,101502.84
2023-04-20T00:47:15.099Z,101494.97
2023-04-20T00:49:41.771Z,101500.06
2023-04-20T00:52:08.962Z,101495.75
2023-04-20T00:54:36.296Z,101494.56
2023-04-20T00:57:03.906Z,101493.00
2023-04-20T00:59:30.415Z,101490.66
2023-04-20T01:01:58.006Z,101484.38
2023-04-20T01:04:25.011Z,101478.47
2023-04-20T01:06:51.590Z,101477.28
2023-04-20T01:09:18.258Z,101479.25
2023-04-20T01:11:44.999Z,101486.69
2023-04-20T01:14:15.908Z,101483.84
2023-04-20T01:16:42.645Z,101488.31
2023-04-20T01:19:12.289Z,101488.25
2023-04-20T01:21:38.901Z,101480.41
2023-04-20T01:24:06.394Z,101474.91
2023-04-20T01:26:32.871Z,101477.28
2023-04-20T01:28:59.379Z,101470.56
2023-04-20T01:31:25.983Z,101483.16
2023-04-20T01:33:52.569Z,101481.16
2023-04-20T01:36:20.751Z,101486.25
2023-04-20T01:38:47.592Z,101482.72
2023-04-20T01:41:14.643Z,101485.03
2023-04-20T01:43:41.322Z,101483.09
2023-04-20T01:46:07.882Z,101474.88
2023-04-20T01:48:34.992Z,101478.78
2023-04-20T01:51:01.538Z,101477.28
2023-04-20T01:53:28.082Z,101481.97
2023-04-20T01:55:54.851Z,101474.53
2023-04-20T01:58:22.767Z,101472.16
2023-04-20T02:00:49.426Z,101482.75
2023-04-20T02:03:16.473Z,101479.63
2023-04-20T02:05:43.117Z,101478.06
2023-04-20T02:08:09.705Z,101482.75
2023-04-20T02:10:39.177Z,101485.16
2023-04-20T02:13:05.682Z,101486.34
2023-04-20T02:15:32.284Z,101485.88
2023-04-20T02:17:58.902Z,101481.63
2023-04-20T02:20:25.537Z,101482.00
2023-04-20T02:22:52.060Z,101482.00
2023-04-20T02:25:18.602Z,101486.31
2023-04-20T02:27:45.124Z,101485.94
2023-04-20T02:30:12.482Z,101483.59
2023-04-20T02:32:41.291Z,101500.84
2023-04-20T02:35:08.824Z,101493.81
2023-04-20T02:37:35.337Z,101491.44
2023-04-20T02:40:01.879Z,101490.25
2023-04-20T02:42:29.193Z,101478.88
2023-04-20T02:44:57.467Z,101490.63
2023-04-20T02:47:24.505Z,101487.06
2023-04-20T02:49:52.954Z,101481.22
2023-04-20T02:52:19.574Z,101482.41
2023-04-20T02:54:46.345Z,101487.91
2023-04-20T02:57:13.378Z,101495.31
2023-04-20T02:59:40.031Z,101493.38
2023-04-20T03:02:16.055Z,101490.25
2023-04-20T03:04:42.876Z,101488.69
2023-04-20T03:07:17.801Z,101488.31
2023-04-20T03:09:44.926Z,101487.91
2023-04-20T03:12:31.816Z,101491.44
2023-04-20T03:15:15.584Z,101491.81
2023-04-20T03:17:52.468Z,101488.69
2023-04-20T03:20:19.000Z,101480.06
2023-04-20T03:22:45.711Z,101485.19
2023-04-20T03:25:12.437Z,101482.41
2023-04-20T03:27:52.993Z,101487.50
2023-04-20T03:30:19.860Z,101491.44
2023-04-20T03:32:51.407Z,101499.28
2023-04-20T03:35:18.209Z,101502.41
2023-04-20T03:37:44.815Z,101495.38
2023-04-20T03:40:11.790Z,101495.31
2023-04-20T03:42:38.334Z,101498.88
2023-04-20T03:45:06.388Z,101502.81
2023-04-20T03:47:33.274Z,101503.19
2023-04-20T03:49:59.851Z,101499.69
2023-04-20T03:52:26.409Z,101496.94
2023-04-20T03:54:53.278Z,101501.66
2023-04-20T03:57:19.836Z,101499.28
2023-04-20T03:59:46.805Z,101493.78
2023-04-20T04:02:17.601Z,101485.16
2023-04-20T04:04:46.454Z,101498.50
2023-04-20T04:07:13.053Z,101499.69
2023-04-20T04:09:41.401Z,101498.50
2023-04-20T04:12:08.664Z,101500.09
2023-04-20T04:14:35.199Z,101500.09
2023-04-20T04:17:02.226Z,101501.63
2023-04-20T04:19:30.226Z,101503.22
2023-04-20T04:21:56.784Z,101509.50
2023-04-20T04:24:23.330Z,101517.75
2023-04-20T04:26:59.426Z,101518.50
2023-04-20T04:29:27.601Z,101522.47
2023-04-20T04:34:37.638Z,101520.88
2023-04-20T04:37:04.602Z,101514.59
2023-04-20T04:39:45.569Z,101517.72
2023-04-20T04:42:18.688Z,101514.19
2023-04-20T04:44:46.149Z,101518.53
2023-04-20T04:47:17.951Z,101523.63
2023-04-20T04:49:45.551Z,101528.31
2023-04-20T04:52:13.308Z,101536.56
2023-04-20T04:54:39.779Z,101536.19
2023-04-20T04:57:06.793Z,101528.72
2023-04-20T04:59:33.363Z,101534.22
2023-04-20T05:01:59.967Z,101536.16
2023-04-20T05:04:26.675Z,101526.75
2023-04-20T05:06:53.249Z,101534.22
2023-04-20T05:09:20.146Z,101527.16
2023-04-20T05:11:46.862Z,101525.19
2023-04-20T05:14:13.439Z,101531.06
2023-04-20T05:16:40.019Z,101535.78
2023-04-20T05:19:06.569Z,101543.63
2023-04-20T05:21:33.124Z,101541.28
2023-04-20T05:23:59.705Z,101544.03
2023-04-20T05:26:26.201Z,101542.47
2023-04-20T05:28:52.692Z,101552.69
2023-04-20T05:31:20.141Z,101548.75
2023-04-20T05:33:46.713Z,101549.94
2023-04-20T05:36:13.241Z,101550.69
2023-04-20T05:38:39.801Z,101551.09
2023-04-20T05:41:06.590Z,101550.28
2023-04-20T05:43:33.088Z,101559.34
2023-04-20T05:45:59.619Z,101558.16
2023-04-20T05:48:29.877Z,101558.56
2023-04-20T05:50:56.917Z,101560.53
2023-04-20T05:53:23.429Z,101559.34
2023-04-20T05:55:50.037Z,101557.75
2023-04-20T05:58:17.064Z,101561.28
2023-04-20T06:00:44.381Z,101556.56
2023-04-20T06:03:11.157Z,101567.97
2023-04-20T06:05:38.040Z,101572.28
2023-04-20T06:08:04.814Z,101569.56
2023-04-20T06:10:34.325Z,101576.22
2023-04-20T06:13:01.004Z,101576.22
2023-04-20T06:15:27.458Z,101584.50
2023-04-20T06:17:54.044Z,101568.34
2023-04-20T06:20:20.670Z,101575.06
2023-04-20T06:22:47.310Z,101588.41
2023-04-20T06:25:15.204Z,101586.81
2023-04-20T06:27:42.256Z,101582.50
2023-04-20T06:30:09.869Z,101589.56
2023-04-20T06:32:36.623Z,101569.94
2023-04-20T06:35:04.264Z,101577.00
2023-04-20T06:37:30.784Z,101581.28
2023-04-20T06:39:57.385Z,101586.00
2023-04-20T06:42:23.896Z,101591.50
2023-04-20T06:44:50.897Z,101581.66
2023-04-20T06:47:17.435Z,101586.78
2023-04-20T06:49:43.964Z,101588.69
2023-04-20T06:52:10.478Z,101594.19
2023-04-20T06:54:36.968Z,101588.28
2023-04-20T06:57:03.457Z,101594.22
2023-04-20T06:59:29.945Z,101594.97
2023-04-20T07:01:56.498Z,101589.47
2023-04-20T07:04:23.171Z,101603.28
2023-04-20T07:06:53.828Z,101593.81
2023-04-20T07:09:20.930Z,101598.09
2023-04-20T07:11:47.431Z,101597.69
2023-04-20T07:14:14.035Z,101601.63
2023-04-20T07:16:40.587Z,101586.28
2023-04-20T07:19:07.217Z,101589.34
2023-04-20T07:21:33.980Z,101603.53
2023-04-20T07:24:00.519Z,101601.94
2023-04-20T07:26:27.030Z,101601.97
2023-04-20T07:28:53.535Z,101601.53
2023-04-20T07:31:20.201Z,101613.59
2023-04-20T07:33:46.750Z,101614.34
2023-04-20T07:36:13.246Z,101620.78
2023-04-20T07:38:39.848Z,101618.03
2023-04-20T07:41:10.011Z,101605.66
2023-04-20T07:43:36.793Z,101608.47
2023-04-20T07:46:03.446Z,101620.63
2023-04-20T07:48:30.049Z,101619.94
2023-04-20T07:50:56.630Z,101621.84
2023-04-20T07:53:23.139Z,101618.69
2023-04-20T07:55:51.027Z,101619.00
2023-04-20T07:58:17.710Z,101619.06
2023-04-20T08:00:46.401Z,101633.25
2023-04-20T08:03:13.590Z,101629.34
2023-04-20T08:05:40.990Z,101625.38
2023-04-20T08:08:07.706Z,101623.81
2023-04-20T08:10:35.177Z,101619.09
2023-04-20T08:13:01.740Z,101621.28
2023-04-20T08:15:28.323Z,101624.31
2023-04-20T08:17:54.953Z,101622.66
2023-04-20T08:20:21.464Z,101617.69
2023-04-20T08:22:49.311Z,101622.13
2023-04-20T08:25:15.931Z,101619.47
2023-04-20T08:27:42.437Z,101621.00
2023-04-20T08:30:09.454Z,101625.16
2023-04-20T08:32:36.319Z,101628.09
2023-04-20T08:35:04.212Z,101639.09
2023-04-20T08:37:32.678Z,101634.34
2023-04-20T08:39:59.671Z,101638.34
2023-04-20T08:42:26.289Z,101634.34
2023-04-20T08:44:53.027Z,101635.09
2023-04-20T08:47:20.638Z,101632.66
2023-04-20T08:49:48.407Z,101636.75
2023-04-20T08:52:15.022Z,101624.34
2023-04-20T08:54:55.267Z,101629.13
2023-04-20T08:57:22.966Z,101633.63
2023-04-20T08:59:49.484Z,101638.53
2023-04-20T09:02:16.246Z,101634.78
2023-04-20T09:04:42.914Z,101626.66
2023-04-20T09:07:21.969Z,101638.41
2023-04-20T09:09:56.163Z,101635.03
2023-04-20T09:12:23.165Z,101632.19
2023-04-20T09:14:49.690Z,101627.13
2023-04-20T09:17:17.907Z,101633.53
2023-04-20T09:19:45.223Z,101630.47
2023-04-20T09:22:12.055Z,101635.19
2023-04-20T09:24:39.860Z,101635.94
2023-04-20T09:27:16.742Z,101642.03
2023-04-20T09:29:43.326Z,101637.09
2023-04-20T09:32:22.131Z,101635.22
2023-04-20T09:34:48.786Z,101629.25
2023-04-20T09:37:16.566Z,101623.41
2023-04-20T09:39:46.481Z,101626.75
2023-04-20T09:42:14.190Z,101618.22
2023-04-20T09:44:40.674Z,101618.91
2023-04-20T09:47:08.564Z,101622.47
2023-04-20T09:49:35.628Z,101625.94
2023-04-20T09:52:03.614Z,101624.56
2023-04-20T09:54:30.594Z,101620.69
2023-04-20T09:57:01.690Z,101625.16
2023-04-20T09:59:28.629Z,101605.47
2023-04-20T10:01:55.409Z,101610.34
2023-04-20T10:04:22.139Z,101611.41
2023-04-20T10:06:57.908Z,101616.34
2023-04-20T10:09:26.288Z,101607.63
2023-04-20T10:11:55.144Z,101609.97
2023-04-20T10:14:26.142Z,101611.53
2023-04-20T10:17:00.111Z,101611.00
2023-04-20T10:19:56.210Z,101608.38
2023-04-20T10:22:32.981Z,101613.91
2023-04-20T10:25:00.865Z,101614.66
2023-04-20T10:27:27.682Z,101613.94
2023-04-20T10:29:54.386Z,101627.81
2023-04-20T10:32:28.203Z,101623.56
2023-04-20T10:35:02.815Z,101619.72
2023-04-20T10:37:29.679Z,101619.78
2023-04-20T10:39:56.300Z,101601.97
2023-04-20T10:42:22.900Z,101609.47
2023-04-20T10:44:49.476Z,101598.09
2023-04-20T10:47:17.013Z,101593.56
2023-04-20T10:49:43.477Z,101588.06
2023-04-20T10:52:10.026Z,101592.25
2023-04-20T10:54:37.982Z,101596.03
2023-04-20T10:57:05.324Z,101591.06
2023-04-20T10:59:31.819Z,101585.91
2023-04-20T11:02:01.355Z,101577.44
2023-04-20T11:04:36.905Z,101580.72
2023-04-20T11:07:13.027Z,101582.66
2023-04-20T11:09:39.838Z,101579.66
2023-04-20T11:12:12.202Z,101584.41
2023-04-20T11:14:53.822Z,101583.09
2023-04-20T11:17:20.745Z,101586.94
2023-04-20T11:19:47.659Z,101593.47
2023-04-20T11:22:21.352Z,101590.81
2023-04-20T11:24:47.869Z,101591.03
2023-04-20T11:27:22.132Z,101586.72
2023-04-20T11:29:57.322Z,101583.81
2023-04-20T11:32:24.494Z,101588.16
2023-04-20T11:35:07.849Z,101589.75
2023-04-20T11:37:46.776Z,101585.69
2023-04-20T11:40:13.678Z,101581.19
2023-04-20T11:42:40.319Z,101585.75
2023-04-20T11:45:07.398Z,101572.63
2023-04-20T11:47:33.938Z,101574.28
2023-04-20T11:50:00.445Z,101567.25
2023-04-20T11:52:27.373Z,101568.72
2023-04-20T11:54:53.853Z,101553.22
2023-04-20T11:57:23.661Z,101552.38
2023-04-20T11:59:50.292Z,101559.66
2023-04-20T12:02:16.897Z,101545.72
2023-04-20T12:04:43.624Z,101553.44
2023-04-20T12:07:10.767Z,101540.41
2023-04-20T12:09:38.387Z,101548.00
2023-04-20T12:12:05.379Z,101538.00
2023-04-20T12:14:33.722Z,101548.03
2023-04-20T12:17:01.436Z,101547.03
2023-04-20T12:19:28.152Z,101543.28
2023-04-20T12:21:55.718Z,101540.38
2023-04-20T12:24:22.558Z,101541.19
2023-04-20T12:26:49.157Z,101537.91
2023-04-20T12:29:16.620Z,101533.31
2023-04-20T12:31:43.396Z,101530.97
2023-04-20T12:34:09.925Z,101528.56
2023-04-20T12:36:36.722Z,101527.03
2023-04-20T12:39:03.736Z,101530.78
2023-04-20T12:41:30.393Z,101533.84
2023-04-20T12:43:56.978Z,101528.72
2023-04-20T12:46:23.520Z,101516.00
2023-04-20T12:48:50.150Z,101508.44
2023-04-20T12:51:16.755Z,101509.88
2023-04-20T12:53:43.274Z,101511.31
2023-04-20T12:56:09.837Z,101510.66
2023-04-20T12:58:36.531Z,101494.50
2023-04-20T13:01:03.557Z,101499.84
2023-04-20T13:03:30.390Z,101511.94
2023-04-20T13:05:57.043Z,101504.72
2023-04-20T13:08:23.742Z,101495.38
2023-04-20T13:10:50.253Z,101493.63
2023-04-20T13:13:16.879Z,101495.97
2023-04-20T13:15:43.457Z,101489.06
2023-04-20T13:18:10.145Z,101491.91
2023-04-20T13:20:36.857Z,101484.91
2023-04-20T13:23:04.276Z,101480.22
2023-04-20T13:25:35.173Z,101488.81
2023-04-20T13:28:02.435Z,101476.19
2023-04-20T13:30:28.995Z,101483.28
2023-04-20T13:32:55.729Z,101471.97
2023-04-20T13:35:22.360Z,101478.50
2023-04-20T13:37:49.001Z,101469.09
2023-04-20T13:40:15.601Z,101467.03
2023-04-20T13:42:42.502Z,101472.19
2023-04-20T13:45:10.291Z,101464.88
2023-04-20T13:47:38.171Z,101471.28
2023-04-20T13:50:05.834Z,101464.72
2023-04-20T13:52:32.422Z,101464.34
2023-04-20T13:54:58.960Z,101456.25
2023-04-20T13:57:25.619Z,101456.75
2023-04-20T13:59:53.046Z,101455.78
2023-04-20T14:02:19.654Z,101455.13
2023-04-20T14:04:46.361Z,101457.94
2023-04-20T14:07:12.930Z,101452.47
2023-04-20T14:09:39.429Z,101445.16
2023-04-20T14:12:05.991Z,101443.13
2023-04-20T14:14:32.564Z,101442.56
2023-04-20T14:16:59.062Z,101430.13
2023-04-20T14:19:25.644Z,101429.66
2023-04-20T14:21:52.309Z,101429.97
2023-04-20T14:24:18.993Z,101434.25
2023-04-20T14:26:45.806Z,101425.84
2023-04-20T14:29:12.303Z,101429.19
2023-04-20T14:31:38.898Z,101429.47
2023-04-20T14:34:05.551Z,101427.50
2023-04-20T14:36:32.514Z,101436.38
2023-04-20T14:38:58.988Z,101426.22
2023-04-20T14:41:25.604Z,101422.84
2023-04-20T14:43:52.097Z,101422.31
2023-04-20T14:46:19.048Z,101415.66
2023-04-20T14:48:46.496Z,101412.25
2023-04-20T14:51:13.574Z,101409.13
2023-04-20T14:53:40.222Z,101403.72
2023-04-20T14:56:06.795Z,101406.47
2023-04-20T14:58:33.378Z,101406.47
2023-04-20T15:00:59.876Z,101392.69
2023-04-20T15:03:26.691Z,101390.63
2023-04-20T15:05:53.693Z,101392.78
2023-04-20T15:08:20.264Z,101389.66
2023-04-20T15:10:46.778Z,101381.91
2023-04-20T15:13:13.490Z,101380.06
2023-04-20T15:15:48.161Z,101381.25
2023-04-20T15:18:16.842Z,101385.59
2023-04-20T15:20:43.783Z,101378.81
2023-04-20T15:23:10.417Z,101387.97
2023-04-20T15:25:36.905Z,101380.50
2023-04-20T15:28:03.434Z,101400.25
2023-04-20T15:30:30.516Z,101392.97
2023-04-20T15:33:04.620Z,101384.34
2023-04-20T15:35:32.371Z,101375.38
2023-04-20T15:37:59.041Z,101372.53
2023-04-20T15:40:27.262Z,101374.59
2023-04-20T15:42:55.813Z,101370.28
2023-04-20T15:45:23.061Z,101380.44
2023-04-20T15:47:49.858Z,101376.84
2023-04-20T15:50:16.699Z,101375.91
2023-04-20T15:52:43.799Z,101375.69
2023-04-20T15:55:10.986Z,101375.91
2023-04-20T15:57:37.497Z,101380.72
2023-04-20T16:00:04.469Z,101379.81
2023-04-20T16:02:37.024Z,101380.84
2023-04-20T16:05:04.301Z,101372.59
2023-04-20T16:07:30.923Z,101369.22
2023-04-20T16:09:57.428Z,101372.03
2023-04-20T16:12:24.063Z,101368.66
2023-04-20T16:14:53.195Z,101373.59
2023-04-20T16:17:20.315Z,101377.75
2023-04-20T16:19:46.838Z,101373.56
2023-04-20T16:22:14.163Z,101373.56
2023-04-20T16:24:40.740Z,101372.63
2023-04-20T16:27:07.308Z,101379.81
2023-04-20T16:29:33.832Z,101374.88
2023-04-20T16:32:00.575Z,101376.84
2023-04-20T16:34:27.175Z,101375.91
2023-04-20T16:36:53.764Z,101382.94
2023-04-20T16:39:20.304Z,101374.41
2023-04-20T16:41:46.873Z,101379.13
2023-04-20T16:44:14.441Z,101374.66
2023-04-20T16:46:41.923Z,101379.47
2023-04-20T16:49:09.154Z,101375.16
2023-04-20T16:51:35.846Z,101377.72
2023-04-20T16:54:02.374Z,101375.69
2023-04-20T16:56:28.953Z,101378.47
2023-04-20T16:58:55.632Z,101374.38
2023-04-20T17:01:22.425Z,101371.28
2023-04-20T17:03:49.249Z,101369.97
2023-04-20T17:06:15.937Z,101371.19
2023-04-20T17:08:42.429Z,101372.28
2023-04-20T17:11:08.952Z,101365.69
2023-04-20T17:13:35.471Z,101368.84
2023-04-20T17:16:02.004Z,101378.13
2023-04-20T17:18:28.522Z,101371.13
2023-04-20T17:20:57.235Z,101377.72
2023-04-20T17:23:23.819Z,101378.16
2023-04-20T17:25:51.278Z,101384.72
2023-04-20T17:28:17.873Z,101395.84
2023-04-20T17:30:44.543Z,101383.53
2023-04-20T17:33:14.443Z,101387.84
2023-04-20T17:35:41.224Z,101382.00
2023-04-20T17:38:07.851Z,101389.00
2023-04-20T17:40:34.732Z,101389.66
2023-04-20T17:43:01.900Z,101386.34
2023-04-20T17:45:28.535Z,101383.06
2023-04-20T17:47:55.077Z,101383.63
2023-04-20T17:50:22.648Z,101397.31
2023-04-20T17:52:49.133Z,101395.91
2023-04-20T17:55:15.627Z,101404.69
2023-04-20T17:57:42.169Z,101393.78
2023-04-20T18:00:11.562Z,101405.34
2023-04-20T18:02:52.506Z,101399.13
2023-04-20T18:05:19.251Z,101401.91
2023-04-20T18:07:45.733Z,101404.13
2023-04-20T18:10:15.786Z,101403.81
2023-04-20T18:12:42.844Z,101409.47
2023-04-20T18:15:09.665Z,101410.69
2023-04-20T18:17:36.225Z,101413.25
2023-04-20T18:20:05.583Z,101416.22
2023-04-20T18:22:32.753Z,101421.69
2023-04-20T18:24:59.262Z,101416.44
2023-04-20T18:27:26.300Z,101420.84
2023-04-20T18:29:53.638Z,101423.97
2023-04-20T18:32:20.916Z,101427.28
2023-04-20T18:34:47.755Z,101424.16
2023-04-20T18:37:15.040Z,101421.47
2023-04-20T18:39:41.679Z,101425.81
2023-04-20T18:42:08.201Z,101430.13
2023-04-20T18:44:35.086Z,101427.00
2023-04-20T18:47:01.857Z,101419.31
2023-04-20T18:49:30.001Z,101429.97
2023-04-20T18:51:56.574Z,101427.09
2023-04-20T18:54:23.175Z,101428.09
2023-04-20T18:56:50.397Z,101428.84
2023-04-20T18:59:16.994Z,101429.06
2023-04-20T19:01:43.612Z,101425.16
2023-04-20T19:04:10.403Z,101434.03
2023-04-20T19:06:36.975Z,101438.00
2023-04-20T19:09:04.174Z,101432.03
2023-04-20T19:11:32.050Z,101433.59
2023-04-20T19:13:58.570Z,101422.38
2023-04-20T19:16:25.119Z,101431.25
2023-04-20T19:18:51.987Z,101428.53
2023-04-20T19:21:20.268Z,101424.66
2023-04-20T19:23:48.133Z,101425.06
2023-04-20T19:26:15.650Z,101423.84
2023-04-20T19:28:42.202Z,101418.81
2023-04-20T19:31:10.921Z,101424.78
2023-04-20T19:33:38.038Z,101423.66
2023-04-20T19:36:06.283Z,101423.84
2023-04-20T19:38:34.601Z,101419.75
2023-04-20T19:41:01.411Z,101423.75
2023-04-20T19:43:28.110Z,101423.06
2023-04-20T19:45:58.128Z,101425.00
2023-04-20T19:48:25.552Z,101434.56
2023-04-20T19:50:52.126Z,101433.09
2023-04-20T19:53:19.253Z,101427.97
2023-04-20T19:55:45.853Z,101426.53
2023-04-20T19:58:13.365Z,101426.72
2023-04-20T20:00:40.159Z,101420.88
2023-04-20T20:03:10.372Z,101430.00
2023-04-20T20:05:36.993Z,101427.97
2023-04-20T20:08:04.362Z,101428.59
2023-04-20T20:10:30.879Z,101429.91
2023-04-20T20:12:57.394Z,101429.63
2023-04-20T20:15:23.952Z,101434.84
2023-04-20T20:17:50.940Z,101426.53
2023-04-20T20:20:17.482Z,101428.19
2023-04-20T20:22:48.210Z,101432.59
2023-04-20T20:25:16.152Z,101431.22
2023-04-20T20:27:42.649Z,101430.63
2023-04-20T20:30:09.813Z,101435.97
2023-04-20T20:32:36.308Z,101430.78
2023-04-20T20:35:04.642Z,101432.50
2023-04-20T20:37:34.613Z,101441.50
2023-04-20T20:40:07.033Z,101434.84
2023-04-20T20:42:34.063Z,101441.81
2023-04-20T20:45:01.073Z,101426.50
2023-04-20T20:47:27.651Z,101435.22
2023-04-20T20:49:54.178Z,101437.50
2023-04-20T20:52:21.171Z,101437.75
2023-04-20T20:54:48.266Z,101437.31
2023-04-20T20:57:14.932Z,101444.50
2023-04-20T20:59:41.467Z,101437.84
2023-04-20T21:02:08.144Z,101438.00
2023-04-20T21:04:34.750Z,101431.94
2023-04-20T21:07:01.277Z,101435.09
2023-04-20T21:09:27.793Z,101432.75
2023-04-20T21:11:56.614Z,101423.31
2023-04-20T21:14:23.235Z,101427.63
2023-04-20T21:16:49.881Z,101422.19
2023-04-20T21:19:16.611Z,101432.13
2023-04-20T21:21:43.461Z,101429.16
2023-04-20T21:24:09.920Z,101430.66
2023-04-20T21:26:36.419Z,101430.75
2023-04-20T21:29:03.623Z,101428.72
2023-04-20T21:31:30.870Z,101434.63
2023-04-20T21:33:57.908Z,101424.66
2023-04-20T21:36:24.403Z,101428.31
2023-04-20T21:38:50.952Z,101431.06
2023-04-20T21:41:17.475Z,101432.28
2023-04-20T21:43:44.007Z,101429.63
2023-04-20T21:46:14.417Z,101430.81
2023-04-20T21:48:41.302Z,101435.75
2023-04-20T21:51:07.845Z,101433.50
2023-04-20T21:53:34.421Z,101436.00
2023-04-20T21:56:00.945Z,101430.13
2023-04-20T21:58:27.432Z,101431.34
2023-04-20T22:00:53.999Z,101436.16
2023-04-20T22:03:20.706Z,101435.19
2023-04-20T22:05:47.438Z,101444.56
2023-04-20T22:08:15.241Z,101435.03
2023-04-20T22:10:42.093Z,101444.19
2023-04-20T22:13:08.575Z,101447.13
2023-04-20T22:15:35.080Z,101443.94
2023-04-20T22:18:03.973Z,101440.72
2023-04-20T22:20:31.528Z,101438.81
2023-04-20T22:23:00.973Z,101439.47
2023-04-20T22:25:27.451Z,101440.09
2023-04-20T22:27:53.917Z,101440.88
2023-04-20T22:30:20.692Z,101438.59
2023-04-20T22:32:47.457Z,101444.44
2023-04-20T22:35:14.046Z,101449.41
2023-04-20T22:37:40.910Z,101443.78
2023-04-20T22:40:08.238Z,101441.69
2023-04-20T22:42:36.108Z,101442.75
2023-04-20T22:45:03.665Z,101449.91
2023-04-20T22:47:30.296Z,101446.78
2023-04-20T22:49:56.999Z,101444.78
2023-04-20T22:52:23.528Z,101446.91
2023-04-20T22:54:50.016Z,101445.09
2023-04-20T22:57:18.134Z,101442.66
2023-04-20T22:59:44.745Z,101446.06
2023-04-20T23:02:11.320Z,101445.72
2023-04-20T23:04:37.967Z,101445.78
2023-04-20T23:07:08.027Z,101450.81
2023-04-20T23:09:37.982Z,101450.22
2023-04-20T23:12:04.700Z,101457.94
2023-04-20T23:14:32.044Z,101452.09
2023-04-20T23:17:00.002Z,101442.50
2023-04-20T23:19:26.537Z,101454.53
2023-04-20T23:21:53.031Z,101439.06
2023-04-20T23:24:19.528Z,101448.53
2023-04-20T23:26:46.057Z,101444.03
2023-04-20T23:29:12.596Z,101438.16
2023-04-20T23:31:39.204Z,101442.22
2023-04-20T23:34:06.033Z,101436.69
2023-04-20T23:36:32.888Z,101438.16
2023-04-20T23:38:59.365Z,101438.81
2023-04-20T23:41:25.977Z,101440.09
2023-04-20T23:43:52.465Z,101436.84
2023-04-20T23:46:19.163Z,101442.38
2023-04-20T23:48:45.760Z,101440.28
2023-04-20T23:51:12.277Z,101443.13
2023-04-20T23:53:39.329Z,101447.25
2023-04-20T23:56:06.495Z,101446.19
2023-04-20T23:58:32.972Z,101445.69
